CYFC

Fredericton Airport

Fredericton, New Brunswick, Canada
METAR CYFC 170200Z AUTO 27005KT 250V310 9SM CLR M11/M16 A2991 RMK SLP133
Observed Flight Rules
Dec-17 @ 02:00 UTC (31 minutes ago) Visual Flight Rules
Wind Visibility Clouds
270° at 5 knots 9 miles
  • Clear skies
Temperatures Readings
Current -11°C / 12°F
Dewpoint -16°C / 3°F
Humidity 67%
Altimeter 29.91" Hg
Pressure 1013.3 hPa
Elevation 20
METAR CYFC 170200Z AUTO 27005KT 250V310 9SM CLR M11/M16 A2991 RMK SLP133
Observed Flight Rules
Dec-17 @ 02:00 UTC
(31 minutes ago)
VFR
Wind Visibility
270° at 5 knots 9 miles
Clouds
  • Clear skies
Temperature Dewpoint
-11°C / 12°F -16°C / 3°F
Humidity Altimeter Pressure
67% 29.91" Hg 1013.3 hPa